createdAt,value
2019-01-31T00:00:39.832Z,19.38
2019-01-31T00:03:32.167Z,19.35
2019-01-31T00:06:15.708Z,19.37
2019-01-31T00:08:47.198Z,19.38
2019-01-31T00:11:30.808Z,19.38
2019-01-31T00:14:35.618Z,19.38
2019-01-31T00:17:31.324Z,19.35
2019-01-31T00:20:02.817Z,19.38
2019-01-31T00:22:52.683Z,19.42
2019-01-31T00:25:46.420Z,19.40
2019-01-31T00:28:34.462Z,19.35
2019-01-31T00:31:25.529Z,19.35
2019-01-31T00:34:13.640Z,19.34
2019-01-31T00:36:57.203Z,19.33
2019-01-31T00:39:34.187Z,19.38
2019-01-31T00:42:17.813Z,19.33
2019-01-31T00:45:08.858Z,19.36
2019-01-31T00:48:12.113Z,19.34
2019-01-31T00:50:49.430Z,19.35
2019-01-31T00:53:23.538Z,19.31
2019-01-31T00:55:57.777Z,19.33
2019-01-31T00:58:41.093Z,19.34
2019-01-31T01:01:21.420Z,19.33
2019-01-31T01:03:58.671Z,19.33
2019-01-31T01:06:46.637Z,19.31
2019-01-31T01:09:29.862Z,19.35
2019-01-31T01:12:09.698Z,19.32
2019-01-31T01:14:49.889Z,19.33
2019-01-31T01:17:21.377Z,19.32
2019-01-31T01:19:52.843Z,19.32
2019-01-31T01:22:30.440Z,19.32
2019-01-31T01:25:18.669Z,19.34
2019-01-31T01:28:12.944Z,19.34
2019-01-31T01:31:17.602Z,19.34
2019-01-31T01:34:16.242Z,19.33
2019-01-31T01:36:50.453Z,19.30
2019-01-31T01:39:30.828Z,19.31
2019-01-31T01:42:14.039Z,19.32
2019-01-31T01:45:17.425Z,19.29
2019-01-31T01:47:51.634Z,19.28
2019-01-31T01:50:41.014Z,19.25
2019-01-31T01:53:15.073Z,19.32
2019-01-31T01:55:52.418Z,19.32
2019-01-31T01:58:26.973Z,19.31
2019-01-31T02:01:03.643Z,19.31
2019-01-31T02:03:51.623Z,19.30
2019-01-31T02:06:25.705Z,19.28
2019-01-31T02:09:29.736Z,19.29
2019-01-31T02:11:58.655Z,19.28
2019-01-31T02:14:45.177Z,19.29
2019-01-31T02:17:22.609Z,19.29
2019-01-31T02:20:27.514Z,19.32
2019-01-31T02:23:22.640Z,19.27
2019-01-31T02:26:12.126Z,19.31
2019-01-31T02:28:43.638Z,19.28
2019-01-31T02:31:40.945Z,19.29
2019-01-31T02:34:15.204Z,19.28
2019-01-31T02:36:49.193Z,19.24
2019-01-31T02:39:43.244Z,19.29
2019-01-31T02:42:30.170Z,19.28
2019-01-31T02:45:04.457Z,19.27
2019-01-31T02:47:55.543Z,19.29
2019-01-31T02:50:35.522Z,19.26
2019-01-31T02:53:09.965Z,19.27
2019-01-31T02:56:00.791Z,19.26
2019-01-31T02:58:51.410Z,19.25
2019-01-31T03:01:25.581Z,19.25
2019-01-31T03:03:59.681Z,19.23
2019-01-31T03:06:50.424Z,19.25
2019-01-31T03:09:30.563Z,19.26
2019-01-31T03:12:17.176Z,19.22
2019-01-31T03:14:48.492Z,19.25
2019-01-31T03:17:25.725Z,19.22
2019-01-31T03:19:57.187Z,19.23
2019-01-31T03:22:28.637Z,19.20
2019-01-31T03:25:05.681Z,19.20
2019-01-31T03:27:55.100Z,19.22
2019-01-31T03:30:59.687Z,19.23
2019-01-31T03:33:36.963Z,19.22
2019-01-31T03:36:28.869Z,19.20
2019-01-31T03:39:03.063Z,19.21
2019-01-31T03:41:49.614Z,19.17
2019-01-31T03:44:29.642Z,19.16
2019-01-31T03:47:03.884Z,19.16
2019-01-31T03:49:44.577Z,19.19
2019-01-31T03:52:28.020Z,19.15
2019-01-31T03:55:15.909Z,19.17
2019-01-31T03:57:53.046Z,19.17
2019-01-31T04:00:39.674Z,19.19
2019-01-31T04:03:11.147Z,19.18
2019-01-31T04:05:42.843Z,19.16
2019-01-31T04:08:11.065Z,19.17
2019-01-31T04:10:39.267Z,19.17
2019-01-31T04:13:07.496Z,19.20
2019-01-31T04:15:35.880Z,19.18
2019-01-31T04:18:04.449Z,19.13
2019-01-31T04:20:32.668Z,19.15
2019-01-31T04:23:00.892Z,19.16
2019-01-31T04:25:29.116Z,19.19
2019-01-31T04:27:57.430Z,19.16
2019-01-31T04:30:25.620Z,19.15
2019-01-31T04:32:53.820Z,19.17
2019-01-31T04:35:22.041Z,19.19
2019-01-31T04:37:50.274Z,19.19
2019-01-31T04:40:30.525Z,19.16
2019-01-31T04:42:48.386Z,19.16
2019-01-31T04:45:16.586Z,19.16
2019-01-31T04:47:44.800Z,19.18
2019-01-31T04:50:14.458Z,19.18
2019-01-31T04:52:42.672Z,19.17
2019-01-31T04:55:11.242Z,19.12
2019-01-31T04:57:39.446Z,19.10
2019-01-31T05:00:16.429Z,19.12
2019-01-31T05:02:44.624Z,19.12
2019-01-31T05:05:12.848Z,19.08
2019-01-31T05:07:41.079Z,19.10
2019-01-31T05:10:13.294Z,19.14
2019-01-31T05:12:41.486Z,19.13
2019-01-31T05:15:11.952Z,19.14
2019-01-31T05:17:40.136Z,19.17
2019-01-31T05:20:11.454Z,19.11
2019-01-31T05:22:39.649Z,19.12
2019-01-31T05:25:09.884Z,19.11
2019-01-31T05:27:38.084Z,19.10
2019-01-31T05:30:09.030Z,19.11
2019-01-31T05:32:37.254Z,19.12
2019-01-31T05:35:06.722Z,19.09
2019-01-31T05:37:34.943Z,19.10
2019-01-31T05:40:03.406Z,19.06
2019-01-31T05:42:31.616Z,19.09
2019-01-31T05:44:59.844Z,19.08
2019-01-31T05:47:28.053Z,19.07
2019-01-31T05:49:56.293Z,19.05
2019-01-31T05:52:24.499Z,19.04
2019-01-31T05:54:52.724Z,19.07
2019-01-31T05:57:20.935Z,19.10
2019-01-31T05:59:49.157Z,19.08
2019-01-31T06:02:17.366Z,19.10
2019-01-31T06:04:45.604Z,19.13
2019-01-31T06:07:13.836Z,19.09
2019-01-31T06:09:42.062Z,19.11
2019-01-31T06:12:10.293Z,19.11
2019-01-31T06:14:38.502Z,19.09
2019-01-31T06:17:06.742Z,19.06
2019-01-31T06:19:34.938Z,19.09
2019-01-31T06:22:03.158Z,19.08
2019-01-31T06:24:31.377Z,19.09
2019-01-31T06:26:59.610Z,19.06
2019-01-31T06:29:27.838Z,19.07
2019-01-31T06:31:56.040Z,19.08
2019-01-31T06:34:24.270Z,19.09
2019-01-31T06:36:52.476Z,19.08
2019-01-31T06:39:20.708Z,19.07
2019-01-31T06:41:48.937Z,19.09
2019-01-31T06:44:17.142Z,19.10
2019-01-31T06:46:45.330Z,19.09
2019-01-31T06:49:13.560Z,19.07
2019-01-31T06:51:41.767Z,19.11
2019-01-31T06:54:09.985Z,19.11
2019-01-31T06:56:38.190Z,19.09
2019-01-31T06:59:06.423Z,19.12
2019-01-31T07:01:34.621Z,19.10
2019-01-31T07:04:02.827Z,19.09
2019-01-31T07:06:31.059Z,19.09
2019-01-31T07:08:59.269Z,19.07
2019-01-31T07:11:30.060Z,19.06
2019-01-31T07:13:57.431Z,19.08
2019-01-31T07:16:25.644Z,19.08
2019-01-31T07:18:53.951Z,19.10
2019-01-31T07:21:22.141Z,19.10
2019-01-31T07:23:50.341Z,19.07
2019-01-31T07:26:18.568Z,19.08
2019-01-31T07:28:46.793Z,19.10
2019-01-31T07:31:15.019Z,19.07
2019-01-31T07:33:43.228Z,19.10
2019-01-31T07:36:11.461Z,19.11
2019-01-31T07:38:39.665Z,19.12
2019-01-31T07:41:07.905Z,19.05
2019-01-31T07:43:36.112Z,19.10
2019-01-31T07:46:04.515Z,19.14
2019-01-31T07:48:32.707Z,19.12
2019-01-31T07:51:00.935Z,19.17
2019-01-31T07:53:29.130Z,19.17
2019-01-31T07:55:57.345Z,19.21
2019-01-31T07:58:25.640Z,19.22
2019-01-31T08:00:53.875Z,19.22
2019-01-31T08:03:22.064Z,19.24
2019-01-31T08:05:50.276Z,19.24
2019-01-31T08:08:18.507Z,19.26
2019-01-31T08:10:46.834Z,19.29
2019-01-31T08:13:15.018Z,19.29
2019-01-31T08:15:43.236Z,19.30
2019-01-31T08:18:11.449Z,19.33
2019-01-31T08:20:39.666Z,19.31
2019-01-31T08:23:07.900Z,19.31
2019-01-31T08:25:36.130Z,19.33
2019-01-31T08:28:04.907Z,19.32
2019-01-31T08:30:41.786Z,19.37
2019-01-31T08:33:09.999Z,19.37
2019-01-31T08:35:38.246Z,19.38
2019-01-31T08:38:06.492Z,19.38
2019-01-31T08:40:34.718Z,19.40
2019-01-31T08:43:02.927Z,19.41
2019-01-31T08:45:31.148Z,19.41
2019-01-31T08:47:59.355Z,19.40
2019-01-31T08:50:29.125Z,19.43
2019-01-31T08:52:57.334Z,19.43
2019-01-31T08:55:25.558Z,19.44
2019-01-31T08:57:53.775Z,19.45
2019-01-31T09:00:24.616Z,19.43
2019-01-31T09:02:52.805Z,19.42
2019-01-31T09:05:21.017Z,19.49
2019-01-31T09:07:49.243Z,19.51
2019-01-31T09:10:28.565Z,19.48
2019-01-31T09:12:57.582Z,19.46
2019-01-31T09:15:26.344Z,19.46
2019-01-31T09:17:54.541Z,19.47
2019-01-31T09:20:25.893Z,19.49
2019-01-31T09:23:03.400Z,19.50
2019-01-31T09:25:49.937Z,19.49
2019-01-31T09:28:24.352Z,19.50
2019-01-31T09:30:58.518Z,19.49
2019-01-31T09:33:41.661Z,19.48
2019-01-31T09:36:18.826Z,19.47
2019-01-31T09:39:19.143Z,19.53
2019-01-31T09:41:53.313Z,19.53
2019-01-31T09:44:41.314Z,19.52
2019-01-31T09:47:33.748Z,19.53
2019-01-31T09:50:11.145Z,19.51
2019-01-31T09:52:51.207Z,19.52
2019-01-31T09:55:43.718Z,19.54
2019-01-31T09:58:23.953Z,19.57
2019-01-31T10:01:18.171Z,19.54
2019-01-31T10:03:49.628Z,19.55
2019-01-31T10:06:23.835Z,19.58
2019-01-31T10:09:01.247Z,19.55
2019-01-31T10:11:35.446Z,19.58
2019-01-31T10:14:34.371Z,19.57
2019-01-31T10:17:05.857Z,19.56
2019-01-31T10:19:43.328Z,19.59
2019-01-31T10:22:14.763Z,19.60
2019-01-31T10:24:58.197Z,19.56
2019-01-31T10:27:46.418Z,19.57
2019-01-31T10:30:26.530Z,19.57
2019-01-31T10:33:16.979Z,19.58
2019-01-31T10:36:12.668Z,19.57
2019-01-31T10:39:04.796Z,19.59
2019-01-31T10:41:41.971Z,19.64
2019-01-31T10:44:28.658Z,19.64
2019-01-31T10:47:12.197Z,19.65
2019-01-31T10:49:52.335Z,19.66
2019-01-31T10:52:23.827Z,19.64
2019-01-31T10:54:58.062Z,19.68
2019-01-31T10:58:03.075Z,19.72
2019-01-31T11:00:34.542Z,19.75
2019-01-31T11:03:28.804Z,19.72
2019-01-31T11:06:02.986Z,19.73
2019-01-31T11:08:40.201Z,19.75
2019-01-31T11:11:11.680Z,19.74
2019-01-31T11:13:48.915Z,19.74
2019-01-31T11:16:35.481Z,19.71
2019-01-31T11:19:12.571Z,19.71
2019-01-31T11:21:49.025Z,19.71
2019-01-31T11:24:20.515Z,19.73
2019-01-31T11:27:08.756Z,19.74
2019-01-31T11:29:58.530Z,19.74
2019-01-31T11:32:46.768Z,19.73
2019-01-31T11:35:43.981Z,19.73
2019-01-31T11:38:17.975Z,19.74
2019-01-31T11:40:58.162Z,19.74
2019-01-31T11:44:04.463Z,19.72
2019-01-31T11:46:50.707Z,19.71
2019-01-31T11:49:22.176Z,19.72
2019-01-31T11:51:53.726Z,19.68
2019-01-31T11:54:34.037Z,19.72
2019-01-31T11:57:08.342Z,19.71
2019-01-31T11:59:36.529Z,19.68
2019-01-31T12:02:05.096Z,19.71
2019-01-31T12:04:33.313Z,19.68
2019-01-31T12:07:01.620Z,19.68
2019-01-31T12:09:29.858Z,19.66
2019-01-31T12:11:58.050Z,19.68
2019-01-31T12:14:26.284Z,19.63
2019-01-31T12:16:54.476Z,19.63
2019-01-31T12:19:22.877Z,19.57
2019-01-31T12:21:51.230Z,19.58
2019-01-31T12:24:19.455Z,19.58
2019-01-31T12:26:47.659Z,19.59
2019-01-31T12:29:15.886Z,19.60
2019-01-31T12:31:44.086Z,19.63
2019-01-31T12:34:12.305Z,19.67
2019-01-31T12:36:40.534Z,19.65
2019-01-31T12:39:09.162Z,19.64
2019-01-31T12:41:37.376Z,19.67
2019-01-31T12:44:05.646Z,19.69
2019-01-31T12:46:33.861Z,19.68
2019-01-31T12:49:02.066Z,19.68
2019-01-31T12:51:30.387Z,19.68
2019-01-31T12:53:58.564Z,19.67
2019-01-31T12:56:26.799Z,19.67
2019-01-31T12:58:54.996Z,19.67
2019-01-31T13:01:23.198Z,19.63
2019-01-31T13:03:51.405Z,19.66
2019-01-31T13:06:19.630Z,19.65
2019-01-31T13:08:47.854Z,19.65
2019-01-31T13:11:16.065Z,19.66
2019-01-31T13:13:46.016Z,19.65
2019-01-31T13:16:14.216Z,19.67
2019-01-31T13:18:42.419Z,19.69
2019-01-31T13:21:10.640Z,19.73
2019-01-31T13:23:38.858Z,19.74
2019-01-31T13:26:07.076Z,19.72
2019-01-31T13:28:35.312Z,19.73
2019-01-31T13:31:03.507Z,19.72
2019-01-31T13:33:32.295Z,19.75
2019-01-31T13:36:00.486Z,19.77
2019-01-31T13:38:28.707Z,19.79
2019-01-31T13:40:56.914Z,19.82
2019-01-31T13:43:25.127Z,19.84
2019-01-31T13:45:53.331Z,19.86
2019-01-31T13:48:21.559Z,19.84
2019-01-31T13:50:49.765Z,19.86
2019-01-31T13:53:17.979Z,19.85
2019-01-31T13:55:46.203Z,19.87
2019-01-31T13:58:14.430Z,19.89
2019-01-31T14:00:42.634Z,19.89
2019-01-31T14:03:10.856Z,19.91
2019-01-31T14:05:39.052Z,19.90
2019-01-31T14:08:07.703Z,19.92
2019-01-31T14:10:37.375Z,19.95
2019-01-31T14:13:05.851Z,19.95
2019-01-31T14:15:34.916Z,19.95
2019-01-31T14:18:03.187Z,19.97
2019-01-31T14:20:31.416Z,19.99
2019-01-31T14:22:59.623Z,20.00
2019-01-31T14:25:27.835Z,19.99
2019-01-31T14:27:56.056Z,19.99
2019-01-31T14:30:27.241Z,19.99
2019-01-31T14:32:55.700Z,19.99
2019-01-31T14:35:23.930Z,19.99
2019-01-31T14:37:52.134Z,20.01
2019-01-31T14:40:20.343Z,20.01
2019-01-31T14:42:48.548Z,20.04
2019-01-31T14:45:17.614Z,20.02
2019-01-31T14:47:45.828Z,20.02
2019-01-31T14:50:19.763Z,20.03
2019-01-31T14:52:48.003Z,20.03
2019-01-31T14:55:16.215Z,20.03
2019-01-31T14:57:44.397Z,20.06
2019-01-31T15:00:27.949Z,20.07
2019-01-31T15:02:56.140Z,20.09
2019-01-31T15:05:24.370Z,20.03
2019-01-31T15:07:52.596Z,20.05
2019-01-31T15:10:28.873Z,19.90
2019-01-31T15:12:57.098Z,19.68
2019-01-31T15:15:25.323Z,19.71
2019-01-31T15:17:53.558Z,19.76
2019-01-31T15:20:37.646Z,19.82
2019-01-31T15:23:00.519Z,19.84
2019-01-31T15:25:28.737Z,19.92
2019-01-31T15:27:56.931Z,19.97
2019-01-31T15:30:27.942Z,20.00
2019-01-31T15:32:56.157Z,20.02
2019-01-31T15:35:24.387Z,20.03
2019-01-31T15:37:52.578Z,20.02
2019-01-31T15:40:26.587Z,20.05
2019-01-31T15:42:54.814Z,20.05
2019-01-31T15:45:23.050Z,20.09
2019-01-31T15:47:51.289Z,20.14
2019-01-31T15:50:21.125Z,20.10
2019-01-31T15:52:49.350Z,20.15
2019-01-31T15:55:22.973Z,20.17
2019-01-31T15:57:51.162Z,20.18
2019-01-31T16:00:38.690Z,20.21
2019-01-31T16:03:08.510Z,20.22
2019-01-31T16:05:36.739Z,20.24
2019-01-31T16:08:05.306Z,20.26
2019-01-31T16:10:33.696Z,20.27
2019-01-31T16:13:02.006Z,20.24
2019-01-31T16:15:30.264Z,20.24
2019-01-31T16:17:58.470Z,20.27
2019-01-31T16:20:26.681Z,20.24
2019-01-31T16:22:54.898Z,20.22
2019-01-31T16:25:23.221Z,20.21
2019-01-31T16:27:51.423Z,20.20
2019-01-31T16:30:20.762Z,20.20
2019-01-31T16:32:49.038Z,20.19
2019-01-31T16:35:18.796Z,20.18
2019-01-31T16:37:48.159Z,20.18
2019-01-31T16:40:17.608Z,20.19
2019-01-31T16:42:46.291Z,20.17
2019-01-31T16:45:16.686Z,20.17
2019-01-31T16:47:44.890Z,20.18
2019-01-31T16:50:16.027Z,20.23
2019-01-31T16:52:44.282Z,20.24
2019-01-31T16:55:17.680Z,20.21
2019-01-31T16:57:45.943Z,20.22
2019-01-31T17:00:17.084Z,20.20
2019-01-31T17:02:45.328Z,20.23
2019-01-31T17:05:16.364Z,20.26
2019-01-31T17:07:44.575Z,20.31
2019-01-31T17:10:12.950Z,20.33
2019-01-31T17:12:41.288Z,20.35
2019-01-31T17:15:18.271Z,20.37
2019-01-31T17:17:42.347Z,20.38
2019-01-31T17:20:13.971Z,20.40
2019-01-31T17:22:42.171Z,20.40
2019-01-31T17:25:12.355Z,20.40
2019-01-31T17:27:40.579Z,20.42
2019-01-31T17:30:14.845Z,20.42
2019-01-31T17:32:43.043Z,20.43
2019-01-31T17:35:11.243Z,20.42
2019-01-31T17:37:39.497Z,20.40
2019-01-31T17:40:10.973Z,20.40
2019-01-31T17:42:39.175Z,20.39
2019-01-31T17:45:10.918Z,20.38
2019-01-31T17:47:39.125Z,20.40
2019-01-31T17:50:10.317Z,20.40
2019-01-31T17:52:38.542Z,20.43
2019-01-31T17:55:09.680Z,20.44
2019-01-31T17:57:37.910Z,20.47
2019-01-31T18:00:11.999Z,20.49
2019-01-31T18:02:45.456Z,20.49
2019-01-31T18:05:12.412Z,20.50
2019-01-31T18:07:40.641Z,20.51
2019-01-31T18:10:14.996Z,20.50
2019-01-31T18:12:43.222Z,20.51
2019-01-31T18:15:12.079Z,20.50
2019-01-31T18:17:40.373Z,20.51
2019-01-31T18:20:11.863Z,20.52
2019-01-31T18:22:40.080Z,20.54
2019-01-31T18:25:09.230Z,20.52
2019-01-31T18:27:37.463Z,20.52
2019-01-31T18:30:17.624Z,20.53
2019-01-31T18:32:45.843Z,20.51
2019-01-31T18:35:14.026Z,20.51
2019-01-31T18:37:42.265Z,20.54
2019-01-31T18:40:13.883Z,20.53
2019-01-31T18:42:42.092Z,20.56
2019-01-31T18:45:13.679Z,20.58
2019-01-31T18:47:41.925Z,20.55
2019-01-31T18:50:13.262Z,20.52
2019-01-31T18:52:41.485Z,20.51
2019-01-31T18:55:10.063Z,20.48
2019-01-31T18:57:38.276Z,20.49
2019-01-31T19:00:22.664Z,20.50
2019-01-31T19:02:50.880Z,20.51
2019-01-31T19:05:19.103Z,20.51
2019-01-31T19:07:47.332Z,20.52
2019-01-31T19:10:16.073Z,20.54
2019-01-31T19:12:44.289Z,20.48
2019-01-31T19:15:17.608Z,20.52
2019-01-31T19:17:45.825Z,20.53
2019-01-31T19:20:17.435Z,20.51
2019-01-31T19:22:45.653Z,20.50
2019-01-31T19:25:14.705Z,20.32
2019-01-31T19:27:43.127Z,19.81
2019-01-31T19:30:17.287Z,19.91
2019-01-31T19:32:45.731Z,20.01
2019-01-31T19:35:14.136Z,20.10
2019-01-31T19:37:42.568Z,20.06
2019-01-31T19:40:16.777Z,20.11
2019-01-31T19:42:45.255Z,20.19
2019-01-31T19:45:19.946Z,20.23
2019-01-31T19:47:48.366Z,20.28
2019-01-31T19:50:17.211Z,20.35
2019-01-31T19:52:45.694Z,20.33
2019-01-31T19:55:14.209Z,20.27
2019-01-31T19:57:42.802Z,20.31
2019-01-31T20:00:16.048Z,20.34
2019-01-31T20:02:44.550Z,20.32
2019-01-31T20:05:13.713Z,20.32
2019-01-31T20:07:42.482Z,20.34
2019-01-31T20:10:14.138Z,20.43
2019-01-31T20:12:42.554Z,20.37
2019-01-31T20:15:12.503Z,20.38
2019-01-31T20:17:41.014Z,20.38
2019-01-31T20:20:16.983Z,20.37
2019-01-31T20:22:45.595Z,20.38
2019-01-31T20:25:14.531Z,20.43
2019-01-31T20:27:43.233Z,20.25
2019-01-31T20:30:28.796Z,20.31
2019-01-31T20:32:58.153Z,20.31
2019-01-31T20:35:26.726Z,20.29
2019-01-31T20:37:55.196Z,20.25
2019-01-31T20:40:35.283Z,20.29
2019-01-31T20:43:04.738Z,20.34
2019-01-31T20:45:33.153Z,20.38
2019-01-31T20:48:01.599Z,20.36
2019-01-31T20:50:32.467Z,20.38
2019-01-31T20:53:00.964Z,20.43
2019-01-31T20:55:29.546Z,20.38
2019-01-31T20:57:58.098Z,20.24
2019-01-31T21:00:33.795Z,20.28
2019-01-31T21:03:02.877Z,20.30
2019-01-31T21:05:31.407Z,20.27
2019-01-31T21:08:00.097Z,20.28
2019-01-31T21:10:28.527Z,20.26
2019-01-31T21:12:57.162Z,20.26
2019-01-31T21:15:26.289Z,20.27
2019-01-31T21:17:55.078Z,20.24
2019-01-31T21:20:26.498Z,20.18
2019-01-31T21:22:55.579Z,20.17
2019-01-31T21:25:24.225Z,20.32
2019-01-31T21:27:52.714Z,20.26
2019-01-31T21:30:30.270Z,20.21
2019-01-31T21:32:58.744Z,20.29
2019-01-31T21:35:27.898Z,20.20
2019-01-31T21:37:56.667Z,20.15
2019-01-31T21:40:27.415Z,20.22
2019-01-31T21:42:56.064Z,20.23
2019-01-31T21:45:25.358Z,20.26
2019-01-31T21:47:53.786Z,20.21
2019-01-31T21:50:29.864Z,20.17
2019-01-31T21:52:58.272Z,20.09
2019-01-31T21:55:27.119Z,20.16
2019-01-31T21:57:55.797Z,20.13
2019-01-31T22:00:30.034Z,20.12
2019-01-31T22:02:58.712Z,20.22
2019-01-31T22:05:27.266Z,20.31
2019-01-31T22:07:55.981Z,20.31
2019-01-31T22:10:24.720Z,20.20
2019-01-31T22:12:53.151Z,20.14
2019-01-31T22:15:26.764Z,20.15
2019-01-31T22:17:59.811Z,20.16
2019-01-31T22:20:25.649Z,20.22
2019-01-31T22:22:54.330Z,20.11
2019-01-31T22:25:24.633Z,20.23
2019-01-31T22:27:53.100Z,20.31
2019-01-31T22:30:30.432Z,20.30
2019-01-31T22:32:58.941Z,20.27
2019-01-31T22:35:27.429Z,20.25
2019-01-31T22:37:55.926Z,20.31
2019-01-31T22:40:24.344Z,20.21
2019-01-31T22:42:52.774Z,20.06
2019-01-31T22:45:24.891Z,20.16
2019-01-31T22:47:53.796Z,20.22
2019-01-31T22:50:23.755Z,20.27
2019-01-31T22:52:52.712Z,20.27
2019-01-31T22:55:26.425Z,20.23
2019-01-31T22:57:54.943Z,20.21
2019-01-31T23:00:52.298Z,20.23
2019-01-31T23:03:20.945Z,20.18
2019-01-31T23:05:49.375Z,20.24
2019-01-31T23:08:17.793Z,20.21
2019-01-31T23:10:46.236Z,20.18
2019-01-31T23:13:14.730Z,20.19
2019-01-31T23:15:43.136Z,20.26
2019-01-31T23:18:11.640Z,20.22
2019-01-31T23:20:40.076Z,20.30
2019-01-31T23:23:08.513Z,20.35
2019-01-31T23:25:40.256Z,20.27
2019-01-31T23:28:07.087Z,20.17
2019-01-31T23:30:35.682Z,20.16
2019-01-31T23:33:04.272Z,20.19
2019-01-31T23:35:32.682Z,20.13
2019-01-31T23:38:01.123Z,20.16
2019-01-31T23:40:29.614Z,20.17
2019-01-31T23:42:58.022Z,20.23
2019-01-31T23:45:26.442Z,20.31
2019-01-31T23:47:54.976Z,20.22
2019-01-31T23:50:23.415Z,20.32
2019-01-31T23:52:51.845Z,20.31
2019-01-31T23:55:20.556Z,20.34
2019-01-31T23:57:48.966Z,20.26
